Alpine, Idaho
Current Conditions -  °F | °C
As of 6:51 AM on Monday 24 Nov 2014 (Local Time) from KMYL Reporting Station
Clear Clear  
Wind Chill:   Ceiling: Unl
Heat Index: 13°   Visibility: 10mi
Dew Point:   Wind: 5mph
Humidity: 81%   Direction: 60°ENE
Pressure: 30.27"   Gusts: NA
Location:  44.6782°N, 116.766°W
Report Text: KMYL 241351Z AUTO 06004KT 10SM CLR M11/M13 A3027 RMK AO2 SLP301 T11061133
Loading
Personal Weather Stations






























Interactive Weather Map New forecast layout! Learn more

10-Day Weather Forecast

Advertisements
Track Severe Weather on mobile